Dike, Texas
Current Conditions -  °F | °C
As of 6:35 PM on Saturday 25 Oct 2014 (Local Time) from KSLR Reporting Station
Clear Clear  
Wind Chill: 82°   Ceiling: Unl
Heat Index: 83°   Visibility: 10mi
Dew Point: 62°   Wind: 6mph
Humidity: 50%   Direction: 190°S
Pressure: 30.07"   Gusts: NA
Location:  33.24°N, 95.48°W
Report Text: KSLR 252335Z AUTO 19005KT 10SM CLR 28/17 A3007 RMK AO2 T02780165
Loading
Personal Weather Stations






























Interactive Weather Map
Tropical Storm Tracking
New forecast layout! Learn more

10-Day Weather Forecast

Advertisements
Track Severe Weather on mobile